Time;durP1;ratioP1;P1;durP2;ratioP2;P2;SDS_P1;SDS_P2;PMS_P1;PMS_P2;Temp;Humidity;BMP_temperature;BMP_pressure;BME280_temperature;BME280_humidity;BME280_pressure;Samples;Min_cycle;Max_cycle;Signal;HPM_P1;HPM_P2
2020/12/11 00:00:16;;;;;;;13.95;10.65;;;;;;;;;;5095513;28;20211;-51
2020/12/11 00:02:45;;;;;;;14.75;11.32;;;;;;;;;;5095092;28;20221;-51
2020/12/11 00:05:12;;;;;;;15.85;12.05;;;;;;;;;;5096350;28;20214;-46
2020/12/11 00:07:44;;;;;;;15.93;10.75;;;;;;;;;;5095925;28;20267;-52
2020/12/11 00:10:12;;;;;;;17.35;11.23;;;;;;;;;;5096658;28;20234;-56
2020/12/11 00:12:42;;;;;;;16.48;10.52;;;;;;;;;;5094865;28;20237;-58
2020/12/11 00:15:13;;;;;;;18.33;11.40;;;;;;;;;;5096180;28;20188;-47
2020/12/11 00:17:40;;;;;;;17.25;11.55;;;;;;;;;;5095821;28;20195;-52
2020/12/11 00:20:11;;;;;;;18.17;12.00;;;;;;;;;;5096738;28;20207;-48
2020/12/11 00:25:37;;;;;;;18.27;11.77;;;;;;;;;;5063539;28;20198;-50
2020/12/11 00:28:04;;;;;;;12.80;10.15;;;;;;;;;;5096743;28;20256;-43
2020/12/11 00:30:37;;;;;;;14.90;11.98;;;;;;;;;;5096651;28;20206;-53
2020/12/11 00:33:06;;;;;;;17.30;12.05;;;;;;;;;;5095716;28;20979;-53
2020/12/11 00:38:21;;;;;;;22.85;12.70;;;;;;;;;;5094917;28;20222;-47
2020/12/11 00:40:49;;;;;;;20.15;12.95;;;;;;;;;;5094306;28;20229;-52
2020/12/11 00:43:24;;;;;;;13.70;10.85;;;;;;;;;;5094232;28;20207;-48
2020/12/11 00:46:03;;;;;;;15.00;11.27;;;;;;;;;;5095066;28;20206;-48
2020/12/11 00:48:45;;;;;;;16.45;11.13;;;;;;;;;;5095367;28;20194;-51
2020/12/11 00:51:22;;;;;;;15.50;11.73;;;;;;;;;;5077089;28;20237;-48
2020/12/11 00:53:49;;;;;;;15.43;11.43;;;;;;;;;;5095557;28;20268;-50
2020/12/11 00:56:17;;;;;;;14.65;10.40;;;;;;;;;;5095099;28;20203;-51
2020/12/11 00:58:45;;;;;;;21.10;11.82;;;;;;;;;;5095080;28;20256;-54
2020/12/11 01:01:12;;;;;;;15.48;11.32;;;;;;;;;;5091618;28;20527;-53
2020/12/11 01:03:55;;;;;;;16.02;11.15;;;;;;;;;;5076882;28;20212;-50
2020/12/11 01:06:27;;;;;;;16.48;12.10;;;;;;;;;;5092306;28;20210;-50
2020/12/11 01:08:54;;;;;;;17.38;11.38;;;;;;;;;;5093699;28;20242;-56
2020/12/11 01:11:30;;;;;;;16.77;12.20;;;;;;;;;;5094113;28;20227;-51
2020/12/11 01:14:01;;;;;;;17.52;12.23;;;;;;;;;;5094647;28;20207;-52
2020/12/11 01:16:28;;;;;;;17.65;12.55;;;;;;;;;;5094342;28;20261;-53
2020/12/11 01:18:57;;;;;;;13.85;10.20;;;;;;;;;;5076682;28;20229;-44
2020/12/11 01:21:24;;;;;;;17.02;12.38;;;;;;;;;;5084423;28;20294;-53
2020/12/11 01:23:50;;;;;;;14.55;11.30;;;;;;;;;;5082673;28;20442;-53
2020/12/11 01:26:30;;;;;;;16.38;11.20;;;;;;;;;;5074887;28;20214;-52
2020/12/11 01:29:02;;;;;;;16.75;11.10;;;;;;;;;;5074092;28;20217;-51
2020/12/11 01:32:13;;;;;;;16.23;10.70;;;;;;;;;;5072236;28;20214;-51
2020/12/11 01:34:49;;;;;;;16.77;11.55;;;;;;;;;;5064457;28;20253;-52
2020/12/11 01:37:18;;;;;;;14.60;10.95;;;;;;;;;;5072913;28;20203;-52
2020/12/11 01:39:58;;;;;;;13.90;9.93;;;;;;;;;;5073724;28;20204;-53
2020/12/11 01:42:36;;;;;;;15.85;11.20;;;;;;;;;;5073562;28;20200;-56
2020/12/11 01:45:22;;;;;;;14.05;9.70;;;;;;;;;;5079153;28;20219;-52
2020/12/11 01:47:55;;;;;;;15.95;10.68;;;;;;;;;;5093875;28;20203;-52
2020/12/11 01:50:23;;;;;;;15.68;11.00;;;;;;;;;;5094781;28;20211;-52
2020/12/11 01:52:55;;;;;;;16.65;12.73;;;;;;;;;;5094812;28;20191;-55
2020/12/11 01:55:46;;;;;;;13.05;10.23;;;;;;;;;;5094141;28;20237;-51
2020/12/11 01:58:20;;;;;;;15.07;11.05;;;;;;;;;;5094770;28;20203;-56
2020/12/11 02:00:55;;;;;;;16.23;10.45;;;;;;;;;;5094233;28;20231;-52
2020/12/11 02:03:22;;;;;;;14.90;11.00;;;;;;;;;;5095254;28;20202;-51
2020/12/11 02:05:50;;;;;;;15.98;10.15;;;;;;;;;;5077617;28;20267;-48
2020/12/11 02:08:18;;;;;;;14.25;10.45;;;;;;;;;;5093461;28;20198;-49
2020/12/11 02:11:02;;;;;;;16.02;10.55;;;;;;;;;;5093609;28;20195;-48
2020/12/11 02:13:35;;;;;;;18.45;11.70;;;;;;;;;;5092356;28;20207;-54
2020/12/11 02:16:10;;;;;;;14.38;10.95;;;;;;;;;;5094120;28;20229;-49
2020/12/11 02:18:38;;;;;;;16.95;11.82;;;;;;;;;;5094473;28;20202;-50
2020/12/11 02:21:15;;;;;;;14.48;10.20;;;;;;;;;;5093425;28;20203;-53
2020/12/11 02:23:44;;;;;;;16.67;11.45;;;;;;;;;;5093855;28;20201;-53
2020/12/11 02:26:12;;;;;;;12.63;9.85;;;;;;;;;;5088382;28;20238;-53
2020/12/11 02:28:39;;;;;;;12.85;9.85;;;;;;;;;;5095234;28;20188;-50
2020/12/11 02:31:05;;;;;;;13.75;10.35;;;;;;;;;;5094225;28;20231;-56
2020/12/11 02:33:34;;;;;;;15.25;10.60;;;;;;;;;;5103747;28;20207;-51
2020/12/11 02:36:14;;;;;;;25.23;10.90;;;;;;;;;;5116863;28;20528;-45
2020/12/11 02:38:41;;;;;;;14.05;9.95;;;;;;;;;;5117236;28;20225;-50
2020/12/11 02:41:09;;;;;;;16.13;10.77;;;;;;;;;;5096999;28;20227;-50
2020/12/11 02:43:37;;;;;;;14.85;10.32;;;;;;;;;;5096404;28;20211;-44
2020/12/11 02:46:05;;;;;;;18.17;9.70;;;;;;;;;;5096006;28;20211;-46
2020/12/11 02:48:32;;;;;;;14.73;10.25;;;;;;;;;;5096674;28;20392;-52
2020/12/11 02:50:59;;;;;;;17.70;10.10;;;;;;;;;;5096875;28;20250;-53
2020/12/11 02:53:35;;;;;;;15.77;9.82;;;;;;;;;;5081836;28;20211;-54
2020/12/11 02:56:06;;;;;;;15.20;10.60;;;;;;;;;;5077245;28;20207;-55
2020/12/11 03:04:02;;;;;;;15.65;11.23;;;;;;;;;;5075492;28;20397;-52
2020/12/11 03:06:30;;;;;;;15.63;9.68;;;;;;;;;;5086682;28;20231;-55
2020/12/11 03:08:57;;;;;;;15.48;11.35;;;;;;;;;;5085683;28;20218;-53
2020/12/11 03:11:27;;;;;;;18.30;9.68;;;;;;;;;;5094678;28;20217;-54
2020/12/11 03:13:55;;;;;;;15.52;10.13;;;;;;;;;;5116371;28;20202;-53
2020/12/11 03:16:29;;;;;;;13.43;9.73;;;;;;;;;;5116316;28;20198;-48
2020/12/11 03:19:05;;;;;;;14.63;10.40;;;;;;;;;;5080686;28;20194;-50
2020/12/11 03:21:32;;;;;;;14.82;10.65;;;;;;;;;;5091174;28;20202;-51
2020/12/11 03:23:59;;;;;;;17.90;12.73;;;;;;;;;;5084776;28;20287;-55
2020/12/11 03:26:26;;;;;;;16.33;11.23;;;;;;;;;;5076734;28;20206;-56
2020/12/11 03:29:03;;;;;;;15.32;11.32;;;;;;;;;;5075288;28;20223;-54
2020/12/11 03:31:37;;;;;;;15.50;11.13;;;;;;;;;;5075772;28;20285;-56
2020/12/11 03:34:04;;;;;;;15.45;10.95;;;;;;;;;;5086293;28;20222;-50
2020/12/11 03:36:43;;;;;;;14.65;10.98;;;;;;;;;;5094750;28;20207;-52
2020/12/11 03:39:10;;;;;;;15.57;11.07;;;;;;;;;;5096086;28;20357;-48
2020/12/11 03:41:37;;;;;;;18.35;10.90;;;;;;;;;;5096301;28;20308;-44
2020/12/11 03:44:11;;;;;;;14.05;9.55;;;;;;;;;;5090509;28;20300;-54
2020/12/11 03:46:49;;;;;;;18.17;10.77;;;;;;;;;;5078533;28;20244;-52
2020/12/11 03:49:16;;;;;;;16.20;11.65;;;;;;;;;;5096714;28;20243;-57
2020/12/11 03:51:48;;;;;;;17.73;10.45;;;;;;;;;;5096395;28;20210;-53
2020/12/11 03:54:15;;;;;;;19.00;10.73;;;;;;;;;;5095790;28;20215;-54
2020/12/11 03:56:42;;;;;;;14.20;10.40;;;;;;;;;;5095443;28;20203;-56
2020/12/11 03:59:13;;;;;;;17.10;11.27;;;;;;;;;;5096663;28;20206;-49
2020/12/11 04:01:40;;;;;;;14.27;10.80;;;;;;;;;;5096273;28;20202;-52
2020/12/11 04:04:13;;;;;;;17.15;10.40;;;;;;;;;;5098573;28;20214;-53
2020/12/11 04:06:42;;;;;;;17.58;9.88;;;;;;;;;;5115998;28;20567;-52
2020/12/11 04:09:09;;;;;;;15.60;11.50;;;;;;;;;;5116226;28;20198;-56
2020/12/11 04:11:38;;;;;;;14.88;10.95;;;;;;;;;;5116520;28;20231;-52
2020/12/11 04:14:06;;;;;;;17.55;10.20;;;;;;;;;;5104784;28;20184;-52
2020/12/11 04:16:49;;;;;;;15.63;10.48;;;;;;;;;;5082508;28;20210;-53
2020/12/11 04:19:26;;;;;;;15.00;11.10;;;;;;;;;;5076057;28;20478;-48
2020/12/11 04:24:35;;;;;;;12.75;9.63;;;;;;;;;;5074310;28;20188;-55
2020/12/11 04:27:04;;;;;;;16.77;10.80;;;;;;;;;;5075077;28;20207;-53
2020/12/11 04:29:31;;;;;;;17.75;11.68;;;;;;;;;;5059760;28;20223;-54
2020/12/11 04:32:07;;;;;;;17.27;10.45;;;;;;;;;;5074918;28;20256;-48
2020/12/11 04:34:48;;;;;;;16.30;11.05;;;;;;;;;;5074640;28;20203;-53
2020/12/11 04:37:16;;;;;;;13.73;10.18;;;;;;;;;;5069302;28;20226;-47
2020/12/11 04:39:46;;;;;;;15.73;10.70;;;;;;;;;;5074113;28;20407;-54
2020/12/11 04:42:13;;;;;;;15.77;11.00;;;;;;;;;;5073957;28;20215;-53
2020/12/11 04:44:43;;;;;;;15.48;10.25;;;;;;;;;;5073694;28;20262;-52
2020/12/11 04:47:14;;;;;;;14.18;10.48;;;;;;;;;;5074149;28;20211;-53
2020/12/11 04:49:43;;;;;;;18.58;11.90;;;;;;;;;;5070744;28;20414;-53
2020/12/11 04:52:14;;;;;;;16.25;11.35;;;;;;;;;;5063022;28;20219;-50
2020/12/11 04:54:41;;;;;;;13.02;10.00;;;;;;;;;;5064708;28;20199;-53
2020/12/11 04:57:21;;;;;;;14.38;11.80;;;;;;;;;;5073360;28;20261;-54
2020/12/11 04:59:58;;;;;;;15.68;10.93;;;;;;;;;;5072735;28;20212;-50
2020/12/11 05:02:28;;;;;;;16.95;10.45;;;;;;;;;;5075046;28;20199;-51
2020/12/11 05:04:58;;;;;;;14.30;10.57;;;;;;;;;;5053301;28;20232;-54
2020/12/11 05:07:25;;;;;;;17.52;10.75;;;;;;;;;;5060614;28;20207;-56
2020/12/11 05:09:59;;;;;;;16.60;10.70;;;;;;;;;;5075012;28;20214;-55
2020/12/11 05:12:38;;;;;;;16.75;10.80;;;;;;;;;;5073445;28;20227;-47
2020/12/11 05:15:05;;;;;;;18.83;11.43;;;;;;;;;;5073676;28;20192;-51
2020/12/11 05:17:48;;;;;;;20.10;12.00;;;;;;;;;;5072414;28;20252;-58
2020/12/11 05:20:32;;;;;;;15.77;10.70;;;;;;;;;;5072376;28;20212;-57
2020/12/11 05:23:08;;;;;;;13.75;9.65;;;;;;;;;;5073996;28;20206;-50
2020/12/11 05:25:44;;;;;;;18.83;11.50;;;;;;;;;;5071370;28;20239;-58
2020/12/11 05:28:17;;;;;;;17.70;10.80;;;;;;;;;;5073469;28;20194;-49
2020/12/11 05:30:44;;;;;;;15.52;11.20;;;;;;;;;;5073847;28;20230;-57
2020/12/11 05:33:21;;;;;;;15.55;10.55;;;;;;;;;;5073240;28;20300;-58
2020/12/11 05:36:13;;;;;;;15.77;11.10;;;;;;;;;;5072990;28;20195;-52
2020/12/11 05:38:58;;;;;;;17.50;11.80;;;;;;;;;;5070512;28;20252;-45
2020/12/11 05:41:34;;;;;;;16.65;10.95;;;;;;;;;;5073637;28;20294;-56
2020/12/11 05:44:04;;;;;;;15.95;11.23;;;;;;;;;;5073428;28;20195;-56
2020/12/11 05:46:39;;;;;;;15.05;10.00;;;;;;;;;;5072894;28;20211;-53
2020/12/11 05:49:24;;;;;;;13.50;10.02;;;;;;;;;;5074761;28;20257;-52
2020/12/11 05:51:59;;;;;;;14.70;10.30;;;;;;;;;;5067846;28;20223;-55
2020/12/11 05:54:41;;;;;;;15.52;10.15;;;;;;;;;;5073831;28;20206;-53
2020/12/11 05:57:13;;;;;;;16.60;10.45;;;;;;;;;;5061959;28;20187;-51
2020/12/11 05:59:42;;;;;;;16.25;10.70;;;;;;;;;;5074308;28;20199;-56
2020/12/11 06:02:27;;;;;;;17.63;12.15;;;;;;;;;;5074178;28;20197;-58
2020/12/11 06:04:57;;;;;;;19.40;11.43;;;;;;;;;;5074509;28;20245;-51
2020/12/11 06:07:26;;;;;;;15.32;10.50;;;;;;;;;;5074834;28;20208;-56
2020/12/11 06:10:00;;;;;;;15.57;11.85;;;;;;;;;;5076377;28;20219;-55
2020/12/11 06:12:29;;;;;;;13.38;9.30;;;;;;;;;;5079595;28;20262;-49
2020/12/11 06:15:05;;;;;;;17.65;11.20;;;;;;;;;;5078982;28;20189;-61
2020/12/11 06:17:33;;;;;;;15.40;11.10;;;;;;;;;;5079215;28;20405;-54
2020/12/11 06:20:01;;;;;;;14.43;9.75;;;;;;;;;;5080113;28;20214;-50
2020/12/11 06:22:31;;;;;;;13.75;9.50;;;;;;;;;;5078747;28;20204;-55
2020/12/11 06:24:57;;;;;;;16.50;11.32;;;;;;;;;;5079188;28;20234;-51
2020/12/11 06:27:31;;;;;;;16.50;12.90;;;;;;;;;;5078766;28;20217;-57
2020/12/11 06:30:24;;;;;;;15.43;11.18;;;;;;;;;;5079000;28;20212;-57
2020/12/11 06:32:52;;;;;;;15.15;11.07;;;;;;;;;;5079201;28;20235;-59
2020/12/11 06:35:22;;;;;;;14.93;10.50;;;;;;;;;;5078829;28;20215;-48
2020/12/11 06:37:59;;;;;;;16.58;12.07;;;;;;;;;;5079502;28;20192;-55
2020/12/11 06:40:45;;;;;;;15.45;10.50;;;;;;;;;;5079187;28;20195;-57
2020/12/11 06:43:32;;;;;;;15.95;11.10;;;;;;;;;;5060764;28;20195;-51
2020/12/11 06:49:06;;;;;;;16.08;10.20;;;;;;;;;;5038257;28;20208;-52
2020/12/11 06:51:35;;;;;;;15.82;10.85;;;;;;;;;;5078123;28;20219;-56
2020/12/11 06:54:05;;;;;;;17.02;11.77;;;;;;;;;;5077723;28;20183;-55
2020/12/11 06:56:45;;;;;;;16.15;11.95;;;;;;;;;;5071335;28;20226;-55
2020/12/11 06:59:24;;;;;;;16.48;11.10;;;;;;;;;;5068849;28;20199;-58
2020/12/11 07:01:51;;;;;;;16.25;11.38;;;;;;;;;;5075644;28;20195;-55
2020/12/11 07:04:27;;;;;;;16.15;11.75;;;;;;;;;;5077450;28;20214;-55
2020/12/11 07:07:10;;;;;;;19.02;11.85;;;;;;;;;;5077595;28;20252;-50
2020/12/11 07:09:45;;;;;;;13.32;9.98;;;;;;;;;;5072759;28;20192;-58
2020/12/11 07:12:14;;;;;;;16.17;11.82;;;;;;;;;;5077409;28;20262;-55
2020/12/11 07:14:41;;;;;;;16.10;11.80;;;;;;;;;;5077729;28;20216;-53
2020/12/11 07:17:33;;;;;;;17.75;12.23;;;;;;;;;;5061388;28;20213;-56
2020/12/11 07:20:00;;;;;;;17.25;10.60;;;;;;;;;;5073648;28;20208;-56
2020/12/11 07:22:35;;;;;;;17.35;11.68;;;;;;;;;;5077577;28;20196;-54
2020/12/11 07:25:09;;;;;;;18.83;12.02;;;;;;;;;;5075552;28;20215;-56
2020/12/11 07:27:35;;;;;;;16.23;10.70;;;;;;;;;;5076206;28;20207;-57
2020/12/11 07:30:09;;;;;;;14.68;10.43;;;;;;;;;;5077488;28;20199;-57
2020/12/11 07:32:40;;;;;;;18.85;11.38;;;;;;;;;;5074547;28;20267;-55
2020/12/11 07:35:10;;;;;;;15.52;11.13;;;;;;;;;;5073113;28;20184;-56
2020/12/11 07:37:53;;;;;;;16.35;12.25;;;;;;;;;;5078305;28;20223;-52
2020/12/11 07:40:31;;;;;;;15.32;11.25;;;;;;;;;;5085266;28;20253;-61
2020/12/11 07:43:11;;;;;;;15.88;12.05;;;;;;;;;;5072292;28;20201;-55
2020/12/11 07:45:41;;;;;;;15.52;11.25;;;;;;;;;;5078014;28;20216;-55
2020/12/11 07:48:08;;;;;;;16.17;11.70;;;;;;;;;;5065983;28;20263;-58
2020/12/11 07:50:35;;;;;;;13.55;10.77;;;;;;;;;;5076207;28;20190;-55
2020/12/11 07:53:19;;;;;;;16.20;9.95;;;;;;;;;;5075865;28;20371;-53
2020/12/11 07:55:49;;;;;;;16.90;10.32;;;;;;;;;;5075882;28;20188;-59
2020/12/11 07:58:16;;;;;;;15.90;10.57;;;;;;;;;;5076016;28;20214;-55
2020/12/11 08:00:58;;;;;;;14.90;10.73;;;;;;;;;;5071553;28;20210;-58
2020/12/11 08:03:28;;;;;;;16.40;11.07;;;;;;;;;;5057216;28;20193;-55
2020/12/11 08:05:55;;;;;;;13.98;10.27;;;;;;;;;;5057613;28;20213;-58
2020/12/11 08:08:26;;;;;;;14.27;11.43;;;;;;;;;;5057765;28;20213;-58
2020/12/11 08:10:54;;;;;;;12.88;9.57;;;;;;;;;;5076658;28;20216;-49
2020/12/11 08:13:24;;;;;;;15.82;10.18;;;;;;;;;;5076823;28;20240;-51
2020/12/11 08:15:50;;;;;;;14.00;9.60;;;;;;;;;;5075804;28;20200;-58
2020/12/11 08:18:36;;;;;;;16.00;10.70;;;;;;;;;;5075891;28;20228;-60
2020/12/11 08:21:04;;;;;;;14.43;10.50;;;;;;;;;;5056938;28;20221;-53
2020/12/11 08:23:37;;;;;;;14.43;10.13;;;;;;;;;;5061088;28;20189;-51
2020/12/11 08:26:05;;;;;;;16.13;10.52;;;;;;;;;;5085189;28;20224;-54
2020/12/11 08:28:33;;;;;;;14.30;10.05;;;;;;;;;;5095713;28;20222;-58
2020/12/11 08:31:22;;;;;;;14.05;10.25;;;;;;;;;;5079062;28;20200;-52
2020/12/11 08:33:52;;;;;;;14.23;10.57;;;;;;;;;;5067260;28;20263;-57
2020/12/11 08:36:23;;;;;;;13.38;9.60;;;;;;;;;;5076001;28;20204;-60
2020/12/11 08:39:06;;;;;;;13.93;9.35;;;;;;;;;;5076037;28;20218;-54
2020/12/11 08:41:35;;;;;;;13.98;10.82;;;;;;;;;;5074916;28;20218;-55
2020/12/11 08:44:11;;;;;;;15.50;10.25;;;;;;;;;;5073417;28;20193;-56
2020/12/11 08:46:52;;;;;;;12.85;9.73;;;;;;;;;;5058190;28;20301;-60
2020/12/11 08:49:40;;;;;;;12.52;8.63;;;;;;;;;;5054729;28;20205;-51
2020/12/11 08:52:07;;;;;;;11.05;8.30;;;;;;;;;;5054949;28;20221;-57
2020/12/11 08:54:34;;;;;;;13.93;8.77;;;;;;;;;;5073315;28;20215;-48
2020/12/11 08:57:02;;;;;;;12.25;8.52;;;;;;;;;;5074292;28;20201;-59
2020/12/11 08:59:29;;;;;;;23.38;10.32;;;;;;;;;;5075617;28;20242;-55
2020/12/11 09:01:56;;;;;;;12.55;8.93;;;;;;;;;;5075057;28;20216;-53
2020/12/11 09:04:23;;;;;;;13.10;9.80;;;;;;;;;;5075536;28;20181;-56
2020/12/11 09:06:50;;;;;;;12.05;9.07;;;;;;;;;;5075058;28;20223;-55
2020/12/11 09:09:18;;;;;;;18.58;10.25;;;;;;;;;;5075326;28;20243;-57
2020/12/11 09:12:05;;;;;;;14.90;10.20;;;;;;;;;;5075125;28;20237;-57
2020/12/11 09:14:33;;;;;;;13.02;9.32;;;;;;;;;;5073021;28;20233;-60
2020/12/11 09:17:00;;;;;;;13.95;9.48;;;;;;;;;;5074744;28;20210;-49
2020/12/11 09:19:30;;;;;;;11.75;9.20;;;;;;;;;;5075231;28;20272;-52
2020/12/11 09:22:00;;;;;;;14.15;9.00;;;;;;;;;;5074845;28;20197;-48
2020/12/11 09:24:27;;;;;;;11.73;8.25;;;;;;;;;;5054896;28;20220;-53
2020/12/11 09:26:58;;;;;;;11.82;8.48;;;;;;;;;;5072146;28;20219;-56
2020/12/11 09:29:28;;;;;;;11.57;8.65;;;;;;;;;;5075572;28;20197;-52
2020/12/11 09:32:01;;;;;;;13.43;9.48;;;;;;;;;;5076580;28;20244;-61
2020/12/11 09:34:31;;;;;;;10.02;7.90;;;;;;;;;;5070429;28;20225;-56
2020/12/11 09:36:59;;;;;;;13.10;10.05;;;;;;;;;;5071840;28;20205;-51
2020/12/11 09:48:17;;;;;;;10.82;7.38;;;;;;;;;;5075587;28;20189;-49
2020/12/11 09:50:51;;;;;;;12.65;9.13;;;;;;;;;;5075872;28;20270;-48
2020/12/11 09:53:31;;;;;;;11.40;8.98;;;;;;;;;;5066773;28;20239;-58
2020/12/11 09:56:02;;;;;;;12.50;8.60;;;;;;;;;;5055773;28;20198;-54
2020/12/11 09:58:40;;;;;;;13.52;9.77;;;;;;;;;;5055728;28;20229;-60
2020/12/11 10:01:08;;;;;;;10.55;8.05;;;;;;;;;;5073551;28;20189;-57
2020/12/11 10:03:39;;;;;;;10.95;8.75;;;;;;;;;;5075216;28;20210;-57
2020/12/11 10:06:13;;;;;;;10.68;7.63;;;;;;;;;;5056958;28;20253;-55
2020/12/11 10:08:41;;;;;;;11.40;8.43;;;;;;;;;;5056153;28;20197;-57
2020/12/11 10:11:08;;;;;;;12.23;8.50;;;;;;;;;;5056039;28;20632;-57
2020/12/11 10:13:36;;;;;;;17.65;8.48;;;;;;;;;;5075271;28;20249;-57
2020/12/11 10:16:03;;;;;;;13.07;8.50;;;;;;;;;;5063436;28;20249;-54
2020/12/11 10:18:54;;;;;;;14.45;9.10;;;;;;;;;;5064915;28;20201;-56
2020/12/11 10:21:21;;;;;;;15.95;8.20;;;;;;;;;;5054176;28;20224;-48
2020/12/11 10:23:47;;;;;;;12.15;8.15;;;;;;;;;;5053732;28;20202;-52
2020/12/11 10:26:15;;;;;;;13.93;7.75;;;;;;;;;;5053533;28;20194;-54
2020/12/11 10:28:44;;;;;;;11.80;8.73;;;;;;;;;;5067679;28;20224;-50
2020/12/11 10:31:11;;;;;;;11.77;8.90;;;;;;;;;;5075514;28;20197;-47
2020/12/11 10:33:39;;;;;;;14.18;7.55;;;;;;;;;;5058735;28;20238;-49
2020/12/11 10:36:08;;;;;;;12.40;7.90;;;;;;;;;;5056339;28;20217;-56
2020/12/11 10:38:35;;;;;;;10.73;7.68;;;;;;;;;;5075283;28;20217;-54
2020/12/11 10:41:09;;;;;;;11.18;8.50;;;;;;;;;;5075272;28;20245;-57
2020/12/11 10:43:36;;;;;;;12.80;8.30;;;;;;;;;;5075755;28;20232;-53
2020/12/11 10:46:03;;;;;;;16.55;10.18;;;;;;;;;;5074853;28;20205;-48
2020/12/11 10:48:46;;;;;;;15.48;8.90;;;;;;;;;;5070207;28;20213;-54
2020/12/11 10:51:15;;;;;;;21.15;9.27;;;;;;;;;;5054890;28;20209;-55
2020/12/11 10:53:42;;;;;;;11.88;7.80;;;;;;;;;;5060272;28;20216;-58
2020/12/11 10:56:19;;;;;;;12.75;8.55;;;;;;;;;;5077650;28;20193;-55
2020/12/11 10:58:56;;;;;;;14.38;8.82;;;;;;;;;;5079610;28;20228;-58
2020/12/11 11:01:33;;;;;;;14.30;8.60;;;;;;;;;;5078965;28;20207;-59
2020/12/11 11:04:04;;;;;;;11.23;9.75;;;;;;;;;;5077059;28;20204;-54
2020/12/11 11:06:35;;;;;;;16.98;10.15;;;;;;;;;;5066844;28;20224;-55
2020/12/11 11:09:37;;;;;;;14.00;9.55;;;;;;;;;;5078243;28;20215;-58
2020/12/11 11:12:14;;;;;;;12.38;8.90;;;;;;;;;;5077471;28;20219;-55
2020/12/11 11:23:36;;;;;;;13.13;9.10;;;;;;;;;;5052217;28;20266;-53
2020/12/11 11:29:06;;;;;;;15.13;8.90;;;;;;;;;;5066690;28;20267;-53
2020/12/11 11:31:33;;;;;;;12.68;9.20;;;;;;;;;;5078025;28;20196;-57
2020/12/11 11:34:04;;;;;;;16.23;8.77;;;;;;;;;;5059202;28;20224;-51
2020/12/11 11:36:36;;;;;;;16.92;10.75;;;;;;;;;;5044076;28;20190;-59
2020/12/11 11:39:05;;;;;;;15.38;10.13;;;;;;;;;;5053833;28;20260;-54
2020/12/11 11:41:47;;;;;;;15.73;10.70;;;;;;;;;;5056650;28;20210;-53
2020/12/11 11:44:36;;;;;;;13.80;8.82;;;;;;;;;;5076084;28;20216;-53
2020/12/11 11:47:04;;;;;;;15.35;9.07;;;;;;;;;;5056015;28;20210;-61
2020/12/11 11:52:45;;;;;;;12.05;9.05;;;;;;;;;;5011228;28;20230;-54
2020/12/11 12:01:15;;;;;;;14.55;9.48;;;;;;;;;;5053825;28;20204;-55
2020/12/11 12:03:43;;;;;;;10.90;8.70;;;;;;;;;;5048949;28;20327;-55
2020/12/11 12:06:24;;;;;;;14.65;9.48;;;;;;;;;;5071740;28;20225;-53
2020/12/11 12:09:17;;;;;;;12.38;8.85;;;;;;;;;;5074940;28;20221;-50
2020/12/11 12:14:37;;;;;;;15.35;8.57;;;;;;;;;;5071883;28;20431;-56
2020/12/11 12:17:07;;;;;;;14.00;10.40;;;;;;;;;;5074650;28;20197;-56
2020/12/11 12:20:02;;;;;;;18.65;9.50;;;;;;;;;;5071841;28;20264;-50
2020/12/11 12:32:16;;;;;;;9.80;7.90;;;;;;;;;;5072680;28;20193;-57
2020/12/11 12:35:03;;;;;;;15.65;8.95;;;;;;;;;;5049484;28;20189;-52
2020/12/11 12:42:14;;;;;;;12.57;8.68;;;;;;;;;;5059404;28;20198;-56
2020/12/11 12:43:42;;;;;;;14.55;8.57;;;;;;;;;;5054006;28;20220;-55
2020/12/11 12:52:35;;;;;;;22.90;7.70;;;;;;;;;;5073011;28;20246;-57
2020/12/11 12:55:24;;;;;;;9.80;7.03;;;;;;;;;;5073638;28;20225;-55
2020/12/11 12:58:09;;;;;;;10.73;7.55;;;;;;;;;;5070878;28;20237;-55
2020/12/11 13:01:05;;;;;;;12.88;7.50;;;;;;;;;;5067517;28;20269;-58
2020/12/11 13:06:31;;;;;;;9.10;7.10;;;;;;;;;;5055794;28;20301;-59
2020/12/11 13:08:59;;;;;;;12.27;7.57;;;;;;;;;;5074222;28;20209;-58
2020/12/11 13:11:27;;;;;;;13.75;7.95;;;;;;;;;;5073086;28;20213;-58
2020/12/11 13:13:59;;;;;;;9.48;6.35;;;;;;;;;;5073191;28;20292;-60
2020/12/11 13:16:31;;;;;;;11.25;6.60;;;;;;;;;;5071937;28;20232;-60
2020/12/11 13:18:58;;;;;;;12.25;7.55;;;;;;;;;;5073799;28;20296;-58
2020/12/11 13:21:32;;;;;;;10.80;7.28;;;;;;;;;;5073498;28;20209;-53
2020/12/11 13:27:06;;;;;;;9.40;6.47;;;;;;;;;;5074134;28;20613;-57
2020/12/11 13:29:34;;;;;;;11.02;7.30;;;;;;;;;;5071574;28;20269;-57
2020/12/11 13:32:10;;;;;;;9.98;7.03;;;;;;;;;;5074230;28;20203;-55
2020/12/11 13:34:37;;;;;;;8.95;6.43;;;;;;;;;;5073474;28;20213;-61
2020/12/11 13:40:13;;;;;;;9.45;6.85;;;;;;;;;;5072720;28;20200;-55
2020/12/11 13:43:06;;;;;;;10.57;7.38;;;;;;;;;;5068596;28;20220;-58
2020/12/11 13:48:36;;;;;;;9.38;6.72;;;;;;;;;;5062428;28;20240;-57
2020/12/11 13:51:23;;;;;;;10.02;7.15;;;;;;;;;;5072747;28;20215;-58
2020/12/11 13:54:17;;;;;;;15.32;8.55;;;;;;;;;;5070234;28;20276;-59
2020/12/11 13:57:04;;;;;;;13.27;7.35;;;;;;;;;;5073358;28;20205;-60
2020/12/11 13:59:56;;;;;;;10.02;7.05;;;;;;;;;;5060518;28;20217;-60
2020/12/11 14:05:49;;;;;;;12.40;7.90;;;;;;;;;;5024731;28;20247;-58
2020/12/11 14:11:25;;;;;;;12.85;7.15;;;;;;;;;;5053498;28;20236;-57
2020/12/11 14:14:17;;;;;;;10.30;7.75;;;;;;;;;;5052925;28;20245;-57
2020/12/11 14:17:18;;;;;;;10.02;7.15;;;;;;;;;;5053115;28;20245;-56
2020/12/11 14:22:54;;;;;;;10.98;7.53;;;;;;;;;;5028154;28;20241;-52
2020/12/11 14:25:32;;;;;;;9.52;6.63;;;;;;;;;;5072590;28;20248;-53
2020/12/11 14:27:58;;;;;;;14.75;9.75;;;;;;;;;;5072771;28;20190;-59
2020/12/11 14:30:27;;;;;;;8.90;7.35;;;;;;;;;;5072785;28;20231;-57
2020/12/11 14:33:15;;;;;;;11.88;7.80;;;;;;;;;;5072171;28;20296;-52
2020/12/11 14:41:54;;;;;;;12.02;7.60;;;;;;;;;;5072177;28;20317;-58
2020/12/11 14:44:36;;;;;;;12.35;7.50;;;;;;;;;;5076830;28;20447;-59
2020/12/11 14:47:26;;;;;;;9.65;7.57;;;;;;;;;;5076939;28;20197;-58
2020/12/11 14:50:31;;;;;;;13.93;8.48;;;;;;;;;;5056438;28;20228;-55
2020/12/11 14:53:00;;;;;;;13.80;7.85;;;;;;;;;;5056796;28;20229;-54
2020/12/11 15:01:18;;;;;;;11.18;8.25;;;;;;;;;;5041567;28;20221;-53
2020/12/11 15:04:05;;;;;;;12.73;8.98;;;;;;;;;;5057722;28;20198;-57
2020/12/11 15:06:40;;;;;;;13.48;8.45;;;;;;;;;;5057679;28;20216;-47
2020/12/11 15:09:09;;;;;;;14.38;8.73;;;;;;;;;;5056760;28;20204;-59
2020/12/11 15:11:45;;;;;;;15.80;10.30;;;;;;;;;;5056029;28;20214;-56
2020/12/11 15:19:56;;;;;;;14.45;8.57;;;;;;;;;;5068027;28;20235;-55
2020/12/11 15:22:24;;;;;;;14.23;8.75;;;;;;;;;;5073322;28;20197;-57
2020/12/11 15:25:05;;;;;;;13.35;9.57;;;;;;;;;;5076301;28;20203;-56
2020/12/11 15:27:47;;;;;;;17.00;10.30;;;;;;;;;;5076219;28;20197;-57
2020/12/11 15:33:29;;;;;;;13.48;8.95;;;;;;;;;;5057436;28;20719;-48
2020/12/11 15:36:01;;;;;;;14.32;9.38;;;;;;;;;;5055530;28;20213;-51
2020/12/11 15:41:47;;;;;;;14.77;9.90;;;;;;;;;;5072935;28;20252;-63
2020/12/11 15:44:28;;;;;;;14.90;9.70;;;;;;;;;;5075672;28;20209;-60
2020/12/11 15:49:42;;;;;;;15.43;9.45;;;;;;;;;;5054708;28;20210;-55
2020/12/11 15:52:24;;;;;;;17.63;10.05;;;;;;;;;;5055599;28;20278;-54
2020/12/11 15:57:50;;;;;;;16.77;10.82;;;;;;;;;;5054223;28;20213;-49
2020/12/11 16:00:21;;;;;;;15.43;9.80;;;;;;;;;;5055949;28;20232;-54
2020/12/11 16:02:51;;;;;;;16.67;9.35;;;;;;;;;;5056654;28;20259;-50
2020/12/11 16:05:42;;;;;;;14.50;9.45;;;;;;;;;;5050406;28;20205;-58
2020/12/11 16:08:08;;;;;;;16.35;10.15;;;;;;;;;;5051311;28;20213;-57
2020/12/11 16:10:50;;;;;;;18.42;12.10;;;;;;;;;;5069839;28;20204;-49
2020/12/11 16:16:42;;;;;;;15.90;9.40;;;;;;;;;;5069996;28;20188;-50
2020/12/11 16:24:41;;;;;;;17.52;9.73;;;;;;;;;;5070350;28;20197;-50
2020/12/11 16:27:41;;;;;;;17.67;11.68;;;;;;;;;;5070148;28;20197;-53
2020/12/11 16:30:50;;;;;;;15.43;9.80;;;;;;;;;;5066937;28;20296;-60
2020/12/11 16:38:52;;;;;;;16.50;10.65;;;;;;;;;;5074768;28;20230;-60
2020/12/11 16:41:27;;;;;;;15.63;10.25;;;;;;;;;;5072196;28;20211;-52
2020/12/11 16:44:32;;;;;;;17.02;9.88;;;;;;;;;;5070379;28;20220;-60
2020/12/11 16:47:16;;;;;;;19.23;10.10;;;;;;;;;;5055365;28;20270;-57
2020/12/11 16:49:49;;;;;;;25.23;10.90;;;;;;;;;;5062285;28;20209;-45
2020/12/11 16:52:19;;;;;;;13.73;10.48;;;;;;;;;;5073099;28;20220;-54
2020/12/11 16:54:59;;;;;;;18.02;11.05;;;;;;;;;;5063231;28;20202;-58
2020/12/11 17:00:44;;;;;;;17.88;11.52;;;;;;;;;;5051981;28;20265;-48
2020/12/11 17:09:26;;;;;;;16.75;11.25;;;;;;;;;;5071811;28;20196;-50
2020/12/11 17:12:01;;;;;;;16.55;10.38;;;;;;;;;;5060841;28;20901;-55
2020/12/11 17:14:35;;;;;;;20.08;12.23;;;;;;;;;;5071875;28;20271;-54
2020/12/11 17:17:11;;;;;;;17.42;11.00;;;;;;;;;;5068548;28;20237;-60
2020/12/11 17:19:46;;;;;;;20.20;12.90;;;;;;;;;;5061975;28;20216;-57
2020/12/11 17:25:09;;;;;;;18.13;11.98;;;;;;;;;;5073484;28;20265;-53
2020/12/11 17:27:41;;;;;;;15.23;11.45;;;;;;;;;;5073427;28;20471;-55